createdAt,value
2022-08-03T00:02:23.930Z,26.44
2022-08-03T00:07:29.136Z,26.50
2022-08-03T00:12:32.986Z,26.56
2022-08-03T00:17:53.493Z,26.05
2022-08-03T00:22:56.305Z,26.34
2022-08-03T00:27:58.831Z,26.18
2022-08-03T00:33:02.210Z,26.20
2022-08-03T00:38:08.844Z,26.43
2022-08-03T00:43:12.062Z,26.07
2022-08-03T00:48:29.404Z,26.25
2022-08-03T00:53:37.304Z,26.23
2022-08-03T00:58:39.871Z,26.16
2022-08-03T01:03:42.635Z,25.58
2022-08-03T01:09:12.988Z,24.77
2022-08-03T01:14:52.622Z,25.98
2022-08-03T01:20:03.203Z,25.78
2022-08-03T01:25:33.006Z,25.92
2022-08-03T01:30:38.495Z,25.86
2022-08-03T01:36:03.912Z,25.84
2022-08-03T01:41:11.840Z,25.81
2022-08-03T01:46:16.559Z,25.34
2022-08-03T01:51:20.725Z,24.58
2022-08-03T01:56:25.520Z,25.05
2022-08-03T02:02:28.487Z,25.18
2022-08-03T02:07:01.256Z,25.26
2022-08-03T02:12:09.608Z,25.25
2022-08-03T02:17:14.311Z,25.28
2022-08-03T02:22:17.218Z,25.30
2022-08-03T02:27:24.960Z,25.30
2022-08-03T02:32:35.094Z,25.24
2022-08-03T02:37:49.796Z,25.10
2022-08-03T02:42:56.891Z,24.93
2022-08-03T02:48:05.607Z,24.92
2022-08-03T02:53:08.736Z,24.76
2022-08-03T02:58:13.918Z,24.66
2022-08-03T03:03:16.498Z,24.80
2022-08-03T03:08:26.881Z,24.68
2022-08-03T03:13:31.946Z,24.02
2022-08-03T03:18:35.764Z,24.09
2022-08-03T03:23:41.267Z,24.33
2022-08-03T03:28:44.846Z,23.68
2022-08-03T03:33:48.478Z,24.26
2022-08-03T03:38:51.127Z,23.99
2022-08-03T03:43:59.578Z,24.45
2022-08-03T03:49:02.370Z,24.61
2022-08-03T03:54:08.741Z,24.10
2022-08-03T03:59:11.209Z,24.10
2022-08-03T04:04:32.289Z,24.51
2022-08-03T04:09:55.649Z,24.60
2022-08-03T04:15:03.584Z,25.01
2022-08-03T04:20:07.408Z,24.96
2022-08-03T04:25:14.733Z,24.85
2022-08-03T04:30:17.392Z,25.14
2022-08-03T04:35:20.453Z,25.00
2022-08-03T04:40:36.380Z,25.18
2022-08-03T04:45:40.100Z,25.39
2022-08-03T04:50:45.737Z,25.52
2022-08-03T04:55:48.179Z,25.42
2022-08-03T05:00:52.616Z,25.69
2022-08-03T05:06:07.973Z,25.82
2022-08-03T05:11:12.582Z,25.89
2022-08-03T05:16:15.638Z,25.94
2022-08-03T05:21:18.035Z,26.30
2022-08-03T05:26:20.776Z,26.44
2022-08-03T05:31:23.142Z,26.64
2022-08-03T05:36:25.495Z,26.65
2022-08-03T05:41:36.979Z,26.90
2022-08-03T05:46:39.875Z,26.59
2022-08-03T05:51:42.221Z,27.09
2022-08-03T05:56:44.623Z,27.11
2022-08-03T06:01:47.270Z,27.15
2022-08-03T06:06:51.376Z,27.38
2022-08-03T06:11:53.734Z,27.57
2022-08-03T06:16:56.205Z,27.62
2022-08-03T06:21:58.908Z,27.94
2022-08-03T06:27:04.860Z,28.08
2022-08-03T06:32:07.387Z,28.14
2022-08-03T06:37:09.861Z,28.28
2022-08-03T06:42:12.281Z,28.50
2022-08-03T06:47:14.643Z,28.52
2022-08-03T06:52:37.267Z,28.70
2022-08-03T06:57:39.411Z,28.71
2022-08-03T07:02:42.173Z,28.81
2022-08-03T07:07:45.093Z,29.19
2022-08-03T07:12:56.149Z,29.32
2022-08-03T07:17:59.534Z,29.34
2022-08-03T07:23:03.629Z,29.53
2022-08-03T07:28:06.013Z,29.56
2022-08-03T07:33:08.419Z,29.61
2022-08-03T07:38:10.795Z,29.66
2022-08-03T07:43:13.287Z,29.71
2022-08-03T07:48:15.954Z,30.02
2022-08-03T07:53:18.397Z,30.03
2022-08-03T07:58:24.190Z,30.22
2022-08-03T08:03:27.368Z,30.30
2022-08-03T08:08:29.852Z,30.27
2022-08-03T08:13:32.647Z,30.48
2022-08-03T08:18:35.146Z,30.71
2022-08-03T08:23:43.664Z,30.68
2022-08-03T08:28:47.496Z,30.75
2022-08-03T08:34:05.292Z,30.70
2022-08-03T08:39:08.351Z,31.01
2022-08-03T08:44:10.811Z,31.15
2022-08-03T08:49:18.070Z,31.26
2022-08-03T08:54:23.420Z,31.05
2022-08-03T08:59:47.777Z,30.77
2022-08-03T09:04:51.215Z,31.45
2022-08-03T09:10:05.957Z,31.51
2022-08-03T09:15:31.913Z,31.68
2022-08-03T09:20:37.408Z,31.60
2022-08-03T09:25:44.781Z,31.60
2022-08-03T09:31:00.890Z,31.74
2022-08-03T09:36:03.438Z,32.05
2022-08-03T09:41:19.543Z,32.14
2022-08-03T09:46:21.901Z,32.25
2022-08-03T09:51:32.810Z,32.38
2022-08-03T09:56:48.782Z,32.50
2022-08-03T10:01:51.449Z,32.52
2022-08-03T10:07:11.226Z,32.53
2022-08-03T10:12:14.608Z,32.67
2022-08-03T10:17:17.267Z,31.99
2022-08-03T10:22:24.254Z,32.41
2022-08-03T10:27:32.997Z,32.51
2022-08-03T10:32:42.420Z,32.78
2022-08-03T10:37:57.326Z,32.72
2022-08-03T10:43:10.600Z,32.65
2022-08-03T10:48:13.800Z,32.82
2022-08-03T10:53:18.631Z,32.82
2022-08-03T10:58:53.226Z,32.64
2022-08-03T11:03:59.632Z,32.91
2022-08-03T11:09:12.301Z,32.98
2022-08-03T11:14:22.302Z,33.07
2022-08-03T11:19:57.466Z,33.29
2022-08-03T11:25:00.929Z,33.36
2022-08-03T11:30:06.361Z,33.30
2022-08-03T11:35:14.070Z,33.51
2022-08-03T11:40:35.381Z,33.73
2022-08-03T11:45:38.716Z,33.85
2022-08-03T11:50:41.580Z,33.73
2022-08-03T11:55:47.563Z,33.93
2022-08-03T12:00:51.659Z,33.98
2022-08-03T12:06:00.884Z,34.06
2022-08-03T12:11:08.140Z,34.37
2022-08-03T12:16:10.889Z,34.51
2022-08-03T12:21:13.592Z,33.61
2022-08-03T12:26:16.081Z,34.27
2022-08-03T12:31:18.596Z,34.23
2022-08-03T12:36:22.361Z,33.81
2022-08-03T12:41:43.183Z,34.18
2022-08-03T12:46:48.053Z,35.00
2022-08-03T12:51:50.613Z,35.30
2022-08-03T12:57:03.618Z,35.31
2022-08-03T13:02:09.618Z,35.33
2022-08-03T13:07:18.055Z,35.29
2022-08-03T13:12:28.112Z,35.44
2022-08-03T13:17:30.486Z,35.51
2022-08-03T13:22:35.784Z,35.60
2022-08-03T13:28:04.197Z,35.94
2022-08-03T13:33:01.027Z,36.00
2022-08-03T13:38:03.567Z,35.67
2022-08-03T13:43:06.031Z,35.30
2022-08-03T13:48:08.601Z,35.80
2022-08-03T13:53:10.990Z,36.06
2022-08-03T13:58:14.138Z,36.32
2022-08-03T14:03:16.879Z,36.65
2022-08-03T14:08:19.253Z,36.89
2022-08-03T14:13:21.752Z,36.59
2022-08-03T14:18:29.207Z,36.18
2022-08-03T14:23:38.359Z,35.93
2022-08-03T14:28:41.781Z,35.78
2022-08-03T14:33:44.220Z,35.67
2022-08-03T14:38:46.864Z,36.33
2022-08-03T14:44:01.271Z,36.70
2022-08-03T14:50:30.779Z,37.14
2022-08-03T14:54:31.471Z,37.66
2022-08-03T14:59:55.875Z,38.42
2022-08-03T15:04:56.601Z,38.88
2022-08-03T15:10:00.174Z,39.02
2022-08-03T15:15:05.140Z,39.26
2022-08-03T15:20:28.828Z,39.71
2022-08-03T15:26:30.330Z,40.07
2022-08-03T15:31:02.951Z,40.30
2022-08-03T15:36:05.780Z,40.78
2022-08-03T15:41:14.482Z,41.38
2022-08-03T15:46:29.218Z,41.41
2022-08-03T15:51:32.250Z,41.82
2022-08-03T15:56:34.626Z,41.77
2022-08-03T16:01:37.118Z,41.63
2022-08-03T16:06:39.524Z,41.47
2022-08-03T16:11:44.583Z,40.92
2022-08-03T16:16:46.980Z,40.82
2022-08-03T16:21:50.181Z,40.08
2022-08-03T16:26:52.865Z,39.40
2022-08-03T16:31:55.262Z,37.59
2022-08-03T16:37:04.838Z,37.04
2022-08-03T16:42:19.191Z,36.09
2022-08-03T16:47:23.387Z,35.35
2022-08-03T16:52:27.391Z,34.90
2022-08-03T16:57:59.384Z,34.42
2022-08-03T17:02:55.331Z,33.99
2022-08-03T17:08:10.561Z,33.11
2022-08-03T17:13:22.492Z,32.99
2022-08-03T17:18:27.255Z,33.38
2022-08-03T17:29:13.037Z,32.95
2022-08-03T17:34:16.048Z,32.56
2022-08-03T17:39:27.029Z,32.69
2022-08-03T17:44:46.312Z,32.32
2022-08-03T17:49:50.186Z,32.39
2022-08-03T17:55:54.957Z,32.03
2022-08-03T18:00:43.403Z,32.16
2022-08-03T18:11:23.961Z,31.69
2022-08-03T18:16:40.072Z,31.80
2022-08-03T18:22:03.548Z,31.60
2022-08-03T18:27:08.929Z,31.03
2022-08-03T18:32:16.999Z,31.47
2022-08-03T18:37:25.208Z,31.40
2022-08-03T18:42:28.377Z,30.79
2022-08-03T18:47:50.727Z,31.10
2022-08-03T18:54:03.394Z,31.02
2022-08-03T18:59:16.938Z,30.93
2022-08-03T19:04:36.663Z,30.95
2022-08-03T19:09:52.738Z,30.78
2022-08-03T19:15:00.930Z,30.64
2022-08-03T19:20:09.596Z,30.49
2022-08-03T19:25:12.394Z,30.46
2022-08-03T19:30:39.028Z,30.49
2022-08-03T19:35:51.293Z,30.38
2022-08-03T19:41:02.389Z,30.13
2022-08-03T19:46:14.197Z,30.20
2022-08-03T19:51:17.618Z,30.00
2022-08-03T19:56:30.198Z,29.79
2022-08-03T20:01:32.606Z,29.26
2022-08-03T20:06:57.582Z,29.57
2022-08-03T20:12:00.628Z,29.32
2022-08-03T20:17:03.220Z,29.06
2022-08-03T20:22:14.487Z,29.19
2022-08-03T20:27:21.164Z,28.83
2022-08-03T20:32:36.259Z,28.98
2022-08-03T20:37:41.426Z,28.93
2022-08-03T20:42:44.228Z,28.68
2022-08-03T20:47:50.909Z,28.83
2022-08-03T20:52:53.969Z,28.49
2022-08-03T20:57:58.210Z,28.82
2022-08-03T21:03:02.653Z,28.68
2022-08-03T21:08:08.051Z,28.89
2022-08-03T21:13:04.092Z,31.94
2022-08-03T21:13:25.213Z,28.70
2022-08-03T21:18:28.317Z,28.32
2022-08-03T21:23:48.191Z,28.53
2022-08-03T21:28:55.877Z,28.51
2022-08-03T21:34:03.790Z,28.62
2022-08-03T21:39:09.028Z,28.55
2022-08-03T21:44:11.808Z,28.48
2022-08-03T21:50:04.203Z,28.52
2022-08-03T21:54:41.599Z,28.33
2022-08-03T21:59:51.921Z,28.39
2022-08-03T22:04:56.369Z,28.18
2022-08-03T22:10:02.349Z,28.30
2022-08-03T22:15:10.432Z,28.11
2022-08-03T22:20:17.269Z,28.12
2022-08-03T22:25:24.190Z,27.90
2022-08-03T22:30:28.696Z,27.92
2022-08-03T22:35:32.795Z,27.61
2022-08-03T22:40:51.460Z,27.82
2022-08-03T22:46:09.954Z,27.67
2022-08-03T22:51:16.309Z,27.55
2022-08-03T22:56:19.832Z,27.75
2022-08-03T23:01:26.805Z,27.33
2022-08-03T23:06:35.013Z,27.57
2022-08-03T23:11:45.598Z,27.43
2022-08-03T23:16:48.573Z,27.33
2022-08-03T23:21:53.835Z,27.50
2022-08-03T23:27:05.385Z,27.63
2022-08-03T23:32:11.994Z,27.60
2022-08-03T23:37:16.120Z,27.64
2022-08-03T23:42:22.360Z,27.65
2022-08-03T23:47:47.092Z,27.47
2022-08-03T23:53:08.860Z,27.43
2022-08-03T23:58:41.773Z,27.49
